createdAt,value
2018-05-04T00:00:16.613Z,3.93
2018-05-04T00:02:46.536Z,3.70
2018-05-04T00:05:16.627Z,4.67
2018-05-04T00:07:47.647Z,4.07
2018-05-04T00:10:17.709Z,3.40
2018-05-04T00:12:47.708Z,4.23
2018-05-04T00:15:17.860Z,3.90
2018-05-04T00:17:48.782Z,3.93
2018-05-04T00:20:19.259Z,3.60
2018-05-04T00:22:49.270Z,3.50
2018-05-04T00:25:19.402Z,3.67
2018-05-04T00:27:49.413Z,3.97
2018-05-04T00:30:19.377Z,3.70
2018-05-04T00:32:49.292Z,3.77
2018-05-04T00:35:19.921Z,3.87
2018-05-04T00:37:49.920Z,4.20
2018-05-04T00:40:20.828Z,3.97
2018-05-04T00:42:51.192Z,4.37
2018-05-04T00:45:22.054Z,4.47
2018-05-04T00:47:52.636Z,3.30
2018-05-04T00:50:22.778Z,4.30
2018-05-04T00:52:52.636Z,3.73
2018-05-04T00:55:22.942Z,4.00
2018-05-04T00:57:53.907Z,3.67
2018-05-04T01:00:24.847Z,4.03
2018-05-04T01:02:55.073Z,4.17
2018-05-04T01:05:25.252Z,3.60
2018-05-04T01:07:55.336Z,4.10
2018-05-04T01:10:25.492Z,4.10
2018-05-04T01:12:55.393Z,3.60
2018-05-04T01:15:25.239Z,3.87
2018-05-04T01:17:56.578Z,3.97
2018-05-04T01:20:27.458Z,4.20
2018-05-04T01:22:57.340Z,3.80
2018-05-04T01:25:28.344Z,4.17
2018-05-04T01:27:58.207Z,4.40
2018-05-04T01:30:28.897Z,4.33
2018-05-04T01:32:58.758Z,4.27
2018-05-04T01:35:29.457Z,4.20
2018-05-04T01:37:59.803Z,3.90
2018-05-04T01:40:30.763Z,3.97
2018-05-04T01:43:00.874Z,3.63
2018-05-04T01:45:31.012Z,4.00
2018-05-04T01:48:00.989Z,3.60
2018-05-04T01:50:31.685Z,4.13
2018-05-04T01:53:02.183Z,4.10
2018-05-04T01:55:32.424Z,3.87
2018-05-04T01:58:02.483Z,3.93
2018-05-04T02:00:32.812Z,3.90
2018-05-04T02:03:03.497Z,3.90
2018-05-04T02:05:33.794Z,4.30
2018-05-04T02:08:05.001Z,3.93
2018-05-04T02:10:35.324Z,4.70
2018-05-04T02:13:05.455Z,4.70
2018-05-04T02:15:35.498Z,4.40
2018-05-04T02:18:05.875Z,4.63
2018-05-04T02:20:37.080Z,4.17
2018-05-04T02:23:07.016Z,4.80
2018-05-04T02:25:37.355Z,4.03
2018-05-04T02:28:07.503Z,3.87
2018-05-04T02:30:37.638Z,4.47
2018-05-04T02:33:08.573Z,4.53
2018-05-04T02:35:39.393Z,4.07
2018-05-04T02:38:11.017Z,4.20
2018-05-04T02:40:40.953Z,4.23
2018-05-04T02:43:11.100Z,4.53
2018-05-04T02:45:42.277Z,4.20
2018-05-04T02:48:12.242Z,4.53
2018-05-04T02:50:42.303Z,5.10
2018-05-04T02:53:12.861Z,4.47
2018-05-04T02:55:42.939Z,4.60
2018-05-04T02:58:13.131Z,4.32
2018-05-04T03:00:43.642Z,5.00
2018-05-04T03:03:13.841Z,4.72
2018-05-04T03:05:43.721Z,4.55
2018-05-04T03:08:13.782Z,3.97
2018-05-04T03:10:43.966Z,4.22
2018-05-04T03:13:14.220Z,4.47
2018-05-04T03:15:44.712Z,4.82
2018-05-04T03:18:16.303Z,4.73
2018-05-04T03:20:46.859Z,4.50
2018-05-04T03:23:16.865Z,4.75
2018-05-04T03:25:46.709Z,4.62
2018-05-04T03:28:17.624Z,4.80
2018-05-04T03:30:47.657Z,4.90
2018-05-04T03:33:17.793Z,3.92
2018-05-04T03:35:49.806Z,4.40
2018-05-04T03:38:19.638Z,4.60
2018-05-04T03:40:49.628Z,4.50
2018-05-04T03:43:19.786Z,4.47
2018-05-04T03:45:50.039Z,4.65
2018-05-04T03:48:20.639Z,4.32
2018-05-04T03:50:51.703Z,4.43
2018-05-04T03:53:21.779Z,4.47
2018-05-04T03:55:51.824Z,4.53
2018-05-04T04:00:34.783Z,4.65
2018-05-04T04:04:18.670Z,4.10
2018-05-04T04:06:49.277Z,3.80
2018-05-04T04:09:19.216Z,4.53
2018-05-04T04:11:49.647Z,4.20
2018-05-04T04:14:20.678Z,4.07
2018-05-04T04:16:51.198Z,4.12
2018-05-04T04:19:21.525Z,5.22
2018-05-04T04:21:52.091Z,4.00
2018-05-04T04:24:22.537Z,4.57
2018-05-04T04:26:53.684Z,4.68
2018-05-04T04:29:24.460Z,4.35
2018-05-04T04:31:54.797Z,4.35
2018-05-04T04:34:24.843Z,4.97
2018-05-04T04:36:56.064Z,4.68
2018-05-04T04:39:26.369Z,4.70
2018-05-04T04:41:56.391Z,4.43
2018-05-04T04:44:27.428Z,4.72
2018-05-04T04:46:57.866Z,4.40
2018-05-04T04:49:27.868Z,4.30
2018-05-04T04:51:57.884Z,4.87
2018-05-04T04:54:27.990Z,4.57
2018-05-04T04:56:58.018Z,4.65
2018-05-04T04:59:28.522Z,4.75
2018-05-04T05:02:00.804Z,4.60
2018-05-04T05:04:31.515Z,4.90
2018-05-04T05:07:02.206Z,4.90
2018-05-04T05:09:32.520Z,8.35
2018-05-04T05:12:02.631Z,5.83
2018-05-04T05:14:33.275Z,5.10
2018-05-04T05:17:06.657Z,5.33
2018-05-04T05:19:37.121Z,5.33
2018-05-04T05:22:17.420Z,5.50
2018-05-04T05:24:47.760Z,4.87
2018-05-04T05:27:18.176Z,4.87
2018-05-04T05:29:49.301Z,5.03
2018-05-04T05:32:20.489Z,4.83
2018-05-04T05:34:51.524Z,4.63
2018-05-04T05:37:22.146Z,6.00
2018-05-04T05:39:52.982Z,5.33
2018-05-04T05:42:25.545Z,5.10
2018-05-04T05:44:56.729Z,5.97
2018-05-04T05:47:27.997Z,5.53
2018-05-04T05:49:58.422Z,5.03
2018-05-04T05:52:29.044Z,5.13
2018-05-04T05:54:59.755Z,5.60
2018-05-04T05:57:30.005Z,5.63
2018-05-04T06:00:01.017Z,5.50
2018-05-04T06:02:31.984Z,6.03
2018-05-04T06:05:02.763Z,6.00
2018-05-04T06:07:34.886Z,5.67
2018-05-04T06:10:05.778Z,6.10
2018-05-04T06:12:36.259Z,7.00
2018-05-04T06:15:15.939Z,5.83
2018-05-04T06:17:47.742Z,6.77
2018-05-04T06:20:20.407Z,6.72
2018-05-04T06:22:52.405Z,6.17
2018-05-04T06:25:25.824Z,6.77
2018-05-04T06:27:58.450Z,7.17
2018-05-04T06:30:46.534Z,7.20
2018-05-04T06:33:18.326Z,7.60
2018-05-04T06:35:50.961Z,7.40
2018-05-04T06:38:23.375Z,7.33
2018-05-04T06:40:58.163Z,7.17
2018-05-04T06:43:30.529Z,8.03
2018-05-04T06:46:04.432Z,7.80
2018-05-04T06:48:36.882Z,7.67
2018-05-04T06:51:10.207Z,7.07
2018-05-04T06:53:41.325Z,8.10
2018-05-04T06:56:12.895Z,7.37
2018-05-04T06:58:44.761Z,8.17
2018-05-04T07:01:16.141Z,8.27
2018-05-04T07:03:50.062Z,9.10
2018-05-04T07:06:23.496Z,9.03
2018-05-04T07:08:53.620Z,7.97
2018-05-04T07:11:24.091Z,8.67
2018-05-04T07:13:54.440Z,8.65
2018-05-04T07:16:26.104Z,8.00
2018-05-04T07:18:58.333Z,9.20
2018-05-04T07:21:28.290Z,7.70
2018-05-04T07:23:59.648Z,7.93
2018-05-04T07:26:30.972Z,7.80
2018-05-04T07:29:02.916Z,6.87
2018-05-04T07:31:34.182Z,6.40
2018-05-04T07:34:06.601Z,7.17
2018-05-04T07:36:37.177Z,6.87
2018-05-04T07:39:18.048Z,5.67
2018-05-04T07:41:53.267Z,6.87
2018-05-04T07:44:24.749Z,6.00
2018-05-04T07:46:55.949Z,5.63
2018-05-04T07:49:27.438Z,5.95
2018-05-04T07:51:58.872Z,4.60
2018-05-04T07:54:29.199Z,4.20
2018-05-04T07:56:59.912Z,4.73
2018-05-04T07:59:31.589Z,4.50
2018-05-04T08:02:02.809Z,4.90
2018-05-04T08:04:33.945Z,4.70
2018-05-04T08:07:06.008Z,4.47
2018-05-04T08:09:36.626Z,3.97
2018-05-04T08:12:08.226Z,4.70
2018-05-04T08:14:40.977Z,4.33
2018-05-04T08:17:17.317Z,4.67
2018-05-04T08:19:48.022Z,4.27
2018-05-04T08:22:19.372Z,4.50
2018-05-04T08:24:51.402Z,4.70
2018-05-04T08:27:23.072Z,4.50
2018-05-04T08:29:53.651Z,4.80
2018-05-04T08:32:24.881Z,4.17
2018-05-04T08:34:56.463Z,4.23
2018-05-04T08:37:26.991Z,4.53
2018-05-04T08:39:57.384Z,4.10
2018-05-04T08:42:33.690Z,4.90
2018-05-04T08:45:04.976Z,4.13
2018-05-04T08:47:36.236Z,4.03
2018-05-04T08:50:08.616Z,4.87
2018-05-04T08:52:40.015Z,4.13
2018-05-04T08:55:11.686Z,4.60
2018-05-04T08:57:43.266Z,5.33
2018-05-04T09:00:14.064Z,4.87
2018-05-04T09:02:45.255Z,5.50
2018-05-04T09:05:16.752Z,5.40
2018-05-04T09:07:47.451Z,4.63
2018-05-04T09:10:18.285Z,4.43
2018-05-04T09:12:49.391Z,4.30
2018-05-04T09:15:20.767Z,4.10
2018-05-04T09:17:55.206Z,4.00
2018-05-04T09:20:26.803Z,4.57
2018-05-04T09:22:57.677Z,4.90
2018-05-04T09:25:30.473Z,4.27
2018-05-04T09:28:06.077Z,4.17
2018-05-04T09:30:44.886Z,5.47
2018-05-04T09:33:17.100Z,5.27
2018-05-04T09:35:47.837Z,4.60
2018-05-04T09:38:18.567Z,5.00
2018-05-04T09:40:50.212Z,4.63
2018-05-04T09:43:21.932Z,4.63
2018-05-04T09:45:54.010Z,6.00
2018-05-04T09:48:25.013Z,4.97
2018-05-04T09:51:02.507Z,4.67
2018-05-04T09:53:34.271Z,4.70
2018-05-04T09:56:05.393Z,4.60
2018-05-04T09:58:36.964Z,5.17
2018-05-04T10:01:07.255Z,5.63
2018-05-04T10:03:41.181Z,5.17
2018-05-04T10:06:16.733Z,4.83
2018-05-04T10:08:47.769Z,4.87
2018-05-04T10:11:18.905Z,4.80
2018-05-04T10:13:50.161Z,4.77
2018-05-04T10:16:21.696Z,5.30
2018-05-04T10:18:55.605Z,4.07
2018-05-04T10:21:28.443Z,4.83
2018-05-04T10:23:59.754Z,4.80
2018-05-04T10:26:32.166Z,4.83
2018-05-04T10:29:04.416Z,5.00
2018-05-04T10:31:38.834Z,5.77
2018-05-04T10:34:09.405Z,6.10
2018-05-04T10:36:41.870Z,4.83
2018-05-04T10:39:18.145Z,5.47
2018-05-04T10:41:50.601Z,5.23
2018-05-04T10:44:25.894Z,5.60
2018-05-04T10:46:59.668Z,5.35
2018-05-04T10:50:52.035Z,5.10
2018-05-04T10:53:29.834Z,5.30
2018-05-04T10:56:06.666Z,4.83
2018-05-04T10:58:38.225Z,4.73
2018-05-04T11:01:14.956Z,5.23
2018-05-04T11:03:45.922Z,4.87
2018-05-04T11:06:16.737Z,5.67
2018-05-04T11:08:48.425Z,4.50
2018-05-04T11:11:18.884Z,4.77
2018-05-04T11:13:50.850Z,5.47
2018-05-04T11:16:24.189Z,5.57
2018-05-04T11:18:57.348Z,6.00
2018-05-04T11:22:51.984Z,6.50
2018-05-04T11:25:25.883Z,6.00
2018-05-04T11:27:57.026Z,6.30
2018-05-04T11:30:29.877Z,6.97
2018-05-04T11:33:03.632Z,5.20
2018-05-04T11:35:40.529Z,4.73
2018-05-04T11:38:16.076Z,4.90
2018-05-04T11:40:50.869Z,4.33
2018-05-04T11:43:33.528Z,4.87
2018-05-04T11:46:14.708Z,4.60
2018-05-04T11:48:50.999Z,5.03
2018-05-04T11:51:24.804Z,5.20
2018-05-04T11:53:56.969Z,4.77
2018-05-04T11:56:32.280Z,5.23
2018-05-04T11:59:03.795Z,4.90
2018-05-04T12:01:34.663Z,5.07
2018-05-04T12:04:05.541Z,5.17
2018-05-04T12:06:39.311Z,5.30
2018-05-04T12:09:10.622Z,4.97
2018-05-04T12:11:46.525Z,5.10
2018-05-04T12:14:18.629Z,4.67
2018-05-04T12:16:50.619Z,5.03
2018-05-04T12:19:22.216Z,5.33
2018-05-04T12:21:54.860Z,5.10
2018-05-04T12:24:25.728Z,5.10
2018-05-04T12:26:56.574Z,4.53
2018-05-04T12:29:27.323Z,4.60
2018-05-04T12:31:58.745Z,4.03
2018-05-04T12:34:29.940Z,4.60
2018-05-04T12:37:00.219Z,4.83
2018-05-04T12:39:33.489Z,4.70
2018-05-04T12:42:04.772Z,5.00
2018-05-04T12:44:36.430Z,4.90
2018-05-04T12:47:10.055Z,4.63
2018-05-04T12:49:41.636Z,5.87
2018-05-04T12:52:13.109Z,5.90
2018-05-04T12:54:43.558Z,5.10
2018-05-04T12:57:14.643Z,4.83
2018-05-04T12:59:48.887Z,4.40
2018-05-04T13:02:19.809Z,5.20
2018-05-04T13:04:52.267Z,5.33
2018-05-04T13:07:26.530Z,4.93
2018-05-04T13:09:57.232Z,5.47
2018-05-04T13:12:28.887Z,5.73
2018-05-04T13:15:00.675Z,5.70
2018-05-04T13:17:31.020Z,4.93
2018-05-04T13:20:01.677Z,5.37
2018-05-04T13:22:33.604Z,5.40
2018-05-04T13:25:05.575Z,6.00
2018-05-04T13:27:41.840Z,6.37
2018-05-04T13:30:18.070Z,5.03
2018-05-04T13:32:49.974Z,5.10
2018-05-04T13:35:21.477Z,6.67
2018-05-04T13:37:53.220Z,6.17
2018-05-04T13:40:23.741Z,6.97
2018-05-04T13:42:57.029Z,8.37
2018-05-04T13:45:27.572Z,7.80
2018-05-04T13:47:58.728Z,8.20
2018-05-04T13:50:32.416Z,7.93
2018-05-04T13:53:02.983Z,7.60
2018-05-04T13:55:36.190Z,7.67
2018-05-04T13:58:07.262Z,7.60
2018-05-04T14:00:39.039Z,7.87
2018-05-04T14:03:09.992Z,8.10
2018-05-04T14:05:40.209Z,7.87
2018-05-04T14:08:11.196Z,7.20
2018-05-04T14:10:43.566Z,7.90
2018-05-04T14:13:15.221Z,8.23
2018-05-04T14:15:47.465Z,7.70
2018-05-04T14:18:18.045Z,7.93
2018-05-04T14:20:50.454Z,7.50
2018-05-04T14:23:21.472Z,7.40
2018-05-04T14:25:52.303Z,7.57
2018-05-04T14:28:23.917Z,7.20
2018-05-04T14:30:55.944Z,7.00
2018-05-04T14:33:27.842Z,7.03
2018-05-04T14:35:57.999Z,6.60
2018-05-04T14:38:29.765Z,6.93
2018-05-04T14:41:01.019Z,6.47
2018-05-04T14:43:32.694Z,6.53
2018-05-04T14:46:03.993Z,7.67
2018-05-04T14:48:34.367Z,6.33
2018-05-04T14:51:06.628Z,6.40
2018-05-04T14:53:39.213Z,5.83
2018-05-04T14:56:10.555Z,6.00
2018-05-04T14:58:42.475Z,6.07
2018-05-04T15:01:14.374Z,5.83
2018-05-04T15:03:46.224Z,6.30
2018-05-04T15:06:16.924Z,5.57
2018-05-04T15:08:49.342Z,6.30
2018-05-04T15:11:23.584Z,5.77
2018-05-04T15:14:02.102Z,5.83
2018-05-04T15:16:34.530Z,5.57
2018-05-04T15:19:08.176Z,6.40
2018-05-04T15:21:43.004Z,5.40
2018-05-04T15:24:21.489Z,6.50
2018-05-04T15:26:54.517Z,6.00
2018-05-04T15:29:26.822Z,5.77
2018-05-04T15:31:58.691Z,6.03
2018-05-04T15:34:32.269Z,6.60
2018-05-04T15:37:06.700Z,6.50
2018-05-04T15:39:38.637Z,6.13
2018-05-04T15:42:09.215Z,6.90
2018-05-04T15:44:40.047Z,6.20
2018-05-04T15:47:11.626Z,7.00
2018-05-04T15:49:42.401Z,6.60
2018-05-04T15:52:13.301Z,6.73
2018-05-04T15:54:45.073Z,6.13
2018-05-04T15:57:17.283Z,6.43
2018-05-04T15:59:50.168Z,6.90
2018-05-04T16:02:22.971Z,6.43
2018-05-04T16:04:54.111Z,6.37
2018-05-04T16:07:26.694Z,6.43
2018-05-04T16:09:58.412Z,6.50
2018-05-04T16:12:30.568Z,5.93
2018-05-04T16:15:04.487Z,6.33
2018-05-04T16:17:37.308Z,6.40
2018-05-04T16:20:09.450Z,6.87
2018-05-04T16:22:40.986Z,5.90
2018-05-04T16:25:13.346Z,6.10
2018-05-04T16:27:45.125Z,6.27
2018-05-04T16:30:19.496Z,6.57
2018-05-04T16:32:52.232Z,6.40
2018-05-04T16:35:24.274Z,6.33
2018-05-04T16:37:55.243Z,6.73
2018-05-04T16:40:27.554Z,6.73
2018-05-04T16:42:58.633Z,5.77
2018-05-04T16:45:29.340Z,6.33
2018-05-04T16:48:04.273Z,6.03
2018-05-04T16:50:36.252Z,6.53
2018-05-04T16:53:07.517Z,5.37
2018-05-04T16:55:39.839Z,6.30
2018-05-04T16:58:10.734Z,5.30
2018-05-04T17:00:43.753Z,5.73
2018-05-04T17:03:15.509Z,5.60
2018-05-04T17:05:46.680Z,5.00
2018-05-04T17:08:18.025Z,4.83
2018-05-04T17:10:48.908Z,5.33
2018-05-04T17:13:24.515Z,5.57
2018-05-04T17:15:55.436Z,4.70
2018-05-04T17:18:26.083Z,5.57
2018-05-04T17:20:57.200Z,5.23
2018-05-04T17:23:27.803Z,4.67
2018-05-04T17:26:00.411Z,4.17
2018-05-04T17:28:31.304Z,4.60
2018-05-04T17:31:02.716Z,4.70
2018-05-04T17:33:33.415Z,4.47
2018-05-04T17:36:10.294Z,4.97
2018-05-04T17:38:41.263Z,4.87
2018-05-04T17:41:13.666Z,4.30
2018-05-04T17:43:48.372Z,4.77
2018-05-04T17:46:19.242Z,4.23
2018-05-04T17:48:51.996Z,4.47
2018-05-04T17:51:22.551Z,4.10
2018-05-04T17:53:54.803Z,4.30
2018-05-04T17:56:26.818Z,4.53
2018-05-04T17:58:57.307Z,4.07
2018-05-04T18:01:30.510Z,4.10
2018-05-04T18:04:02.415Z,3.80
2018-05-04T18:06:36.392Z,4.03
2018-05-04T18:09:08.377Z,4.40
2018-05-04T18:11:40.712Z,4.03
2018-05-04T18:14:13.323Z,3.90
2018-05-04T18:16:45.162Z,3.67
2018-05-04T18:19:15.795Z,4.00
2018-05-04T18:21:46.645Z,4.07
2018-05-04T18:24:17.679Z,3.87
2018-05-04T18:26:48.987Z,3.97
2018-05-04T18:29:19.343Z,3.90
2018-05-04T18:31:50.005Z,3.90
2018-05-04T18:34:20.671Z,3.50
2018-05-04T18:36:51.040Z,3.83
2018-05-04T18:39:22.351Z,3.50
2018-05-04T18:41:53.118Z,3.50
2018-05-04T18:44:24.261Z,3.33
2018-05-04T18:46:56.629Z,3.87
2018-05-04T18:49:27.948Z,3.50
2018-05-04T18:51:59.958Z,3.80
2018-05-04T18:54:31.306Z,3.37
2018-05-04T18:57:03.731Z,3.53
2018-05-04T18:59:36.346Z,3.80
2018-05-04T19:02:08.583Z,3.20
2018-05-04T19:04:42.527Z,3.40
2018-05-04T19:07:14.566Z,3.53
2018-05-04T19:09:45.186Z,3.57
2018-05-04T19:12:18.787Z,3.20
2018-05-04T19:14:52.897Z,3.90
2018-05-04T19:17:24.058Z,4.33
2018-05-04T19:19:54.936Z,5.87
2018-05-04T19:22:27.449Z,6.50
2018-05-04T19:24:57.648Z,5.30
2018-05-04T19:27:30.140Z,4.20
2018-05-04T19:30:00.479Z,3.20
2018-05-04T19:32:31.223Z,2.57
2018-05-04T19:35:04.033Z,3.23
2018-05-04T19:37:35.753Z,2.80
2018-05-04T19:40:07.891Z,3.43
2018-05-04T19:42:38.720Z,3.50
2018-05-04T19:45:09.700Z,3.10
2018-05-04T19:47:40.003Z,2.70
2018-05-04T19:50:10.207Z,3.07
2018-05-04T19:52:42.165Z,2.83
2018-05-04T19:55:13.140Z,3.10
2018-05-04T19:57:44.263Z,2.93
2018-05-04T20:00:14.836Z,3.13
2018-05-04T20:02:46.273Z,2.77
2018-05-04T20:06:20.122Z,3.10
2018-05-04T20:08:51.360Z,2.80
2018-05-04T20:11:21.796Z,2.47
2018-05-04T20:13:54.016Z,2.90
2018-05-04T20:16:26.003Z,3.43
2018-05-04T20:18:56.305Z,3.97
2018-05-04T20:21:26.524Z,9.13
2018-05-04T20:23:57.851Z,5.10
2018-05-04T20:26:28.013Z,3.13
2018-05-04T20:28:59.017Z,3.73
2018-05-04T20:31:29.413Z,4.70
2018-05-04T20:34:01.498Z,5.23
2018-05-04T20:36:32.036Z,4.87
2018-05-04T20:39:03.427Z,4.10
2018-05-04T20:41:33.788Z,3.40
2018-05-04T20:44:04.825Z,3.30
2018-05-04T20:46:34.880Z,3.20
2018-05-04T20:49:04.943Z,3.50
2018-05-04T20:51:35.778Z,3.37
2018-05-04T20:54:06.762Z,4.23
2018-05-04T20:56:36.865Z,3.73
2018-05-04T20:59:07.352Z,3.13
2018-05-04T21:01:38.190Z,3.50
2018-05-04T21:04:08.384Z,3.10
2018-05-04T21:06:39.779Z,3.60
2018-05-04T21:09:10.570Z,4.70
2018-05-04T21:11:42.177Z,3.87
2018-05-04T21:14:13.052Z,4.23
2018-05-04T21:16:43.075Z,3.47
2018-05-04T21:19:13.342Z,4.63
2018-05-04T21:21:43.413Z,6.00
2018-05-04T21:24:13.782Z,6.80
2018-05-04T21:26:44.392Z,4.00
2018-05-04T21:29:16.476Z,4.23
2018-05-04T21:31:48.208Z,3.80
2018-05-04T21:34:18.547Z,4.60
2018-05-04T21:36:48.707Z,3.60
2018-05-04T21:39:19.682Z,3.57
2018-05-04T21:41:50.246Z,4.07
2018-05-04T21:44:22.119Z,3.37
2018-05-04T21:46:52.426Z,4.63
2018-05-04T21:49:23.863Z,4.10
2018-05-04T21:51:55.947Z,3.50
2018-05-04T21:54:26.397Z,3.80
2018-05-04T21:56:57.161Z,3.87
2018-05-04T21:59:27.352Z,4.00
2018-05-04T22:01:58.351Z,3.90
2018-05-04T22:04:28.880Z,3.93
2018-05-04T22:07:00.091Z,4.13
2018-05-04T22:09:31.720Z,3.97
2018-05-04T22:12:04.759Z,4.00
2018-05-04T22:14:37.251Z,4.20
2018-05-04T22:17:08.114Z,3.80
2018-05-04T22:19:39.492Z,3.63
2018-05-04T22:22:09.967Z,3.77
2018-05-04T22:24:40.380Z,4.37
2018-05-04T22:27:10.722Z,4.00
2018-05-04T22:29:40.906Z,4.00
2018-05-04T22:32:10.986Z,3.60
2018-05-04T22:34:44.751Z,3.77
2018-05-04T22:37:16.547Z,3.90
2018-05-04T22:39:46.659Z,3.57
2018-05-04T22:42:16.649Z,3.93
2018-05-04T22:44:47.153Z,4.17
2018-05-04T22:47:17.717Z,3.70
2018-05-04T22:49:48.215Z,3.70
2018-05-04T22:52:18.551Z,4.07
2018-05-04T22:54:52.670Z,3.80
2018-05-04T22:57:23.444Z,3.97
2018-05-04T22:59:54.120Z,4.43
2018-05-04T23:02:24.259Z,3.87
2018-05-04T23:04:54.890Z,4.27
2018-05-04T23:07:25.139Z,3.63
2018-05-04T23:09:55.508Z,4.17
2018-05-04T23:12:27.115Z,4.20
2018-05-04T23:14:57.254Z,3.63
2018-05-04T23:17:28.725Z,3.93
2018-05-04T23:19:59.551Z,4.23
2018-05-04T23:22:31.462Z,3.83
2018-05-04T23:25:03.449Z,3.70
2018-05-04T23:27:33.647Z,4.17
2018-05-04T23:30:04.800Z,4.03
2018-05-04T23:32:35.208Z,4.20
2018-05-04T23:35:06.618Z,3.80
2018-05-04T23:37:37.684Z,3.93
2018-05-04T23:40:08.023Z,4.63
2018-05-04T23:42:38.210Z,4.00
2018-05-04T23:45:08.301Z,3.80
2018-05-04T23:47:38.780Z,3.70
2018-05-04T23:50:09.189Z,3.50
2018-05-04T23:52:39.464Z,3.67
2018-05-04T23:55:10.059Z,3.80
2018-05-04T23:57:40.899Z,3.77
